createdAt,value
2018-10-12T00:01:36.513Z,22.8
2018-10-12T00:11:35.735Z,22.8
2018-10-12T00:21:34.967Z,22.8
2018-10-12T00:31:34.194Z,22.8
2018-10-12T00:41:33.415Z,22.8
2018-10-12T00:51:32.630Z,22.8
2018-10-12T01:01:31.913Z,22.8
2018-10-12T01:11:31.081Z,22.8
2018-10-12T01:21:30.299Z,22.8
2018-10-12T01:31:29.528Z,22.8
2018-10-12T01:41:28.742Z,22.8
2018-10-12T01:51:27.969Z,22.8
2018-10-12T02:01:27.186Z,22.7
2018-10-12T02:11:26.416Z,22.7
2018-10-12T02:21:25.633Z,22.7
2018-10-12T02:31:24.854Z,22.6
2018-10-12T02:41:24.082Z,22.7
2018-10-12T02:51:23.299Z,22.6
2018-10-12T03:01:22.528Z,22.6
2018-10-12T03:11:21.753Z,22.6
2018-10-12T03:21:20.967Z,22.6
2018-10-12T03:31:20.196Z,22.7
2018-10-12T03:41:19.426Z,22.6
2018-10-12T03:51:18.642Z,22.6
2018-10-12T04:01:17.865Z,22.7
2018-10-12T04:11:17.089Z,22.6
2018-10-12T04:21:16.318Z,22.6
2018-10-12T04:31:15.548Z,22.6
2018-10-12T04:41:14.762Z,22.6
2018-10-12T04:51:13.991Z,22.6
2018-10-12T05:01:13.284Z,22.5
2018-10-12T05:11:12.440Z,22.5
2018-10-12T05:21:11.659Z,22.4
2018-10-12T05:31:10.892Z,22.4
2018-10-12T05:41:10.111Z,22.6
2018-10-12T05:51:09.334Z,22.6
2018-10-12T06:01:08.555Z,22.7
2018-10-12T06:11:07.817Z,22.8
2018-10-12T06:21:07.104Z,23.1
2018-10-12T06:31:06.228Z,23.3
2018-10-12T06:41:05.460Z,22.8
2018-10-12T06:51:04.668Z,22
2018-10-12T07:01:03.892Z,21.9
2018-10-12T07:11:03.114Z,22.4
2018-10-12T07:21:02.343Z,22.8
2018-10-12T07:31:01.554Z,23.1
2018-10-12T07:41:00.777Z,23.8
2018-10-12T07:51:00.010Z,24.3
2018-10-12T08:00:59.232Z,24.6
2018-10-12T08:10:58.448Z,24.8
2018-10-12T08:20:57.670Z,25
2018-10-12T08:30:56.887Z,25.2
2018-10-12T15:16:33.038Z,23.6
2018-10-12T15:26:32.263Z,23.6
2018-10-12T15:36:31.484Z,23.6
2018-10-12T15:46:30.708Z,23.6
2018-10-12T15:56:29.937Z,23.5
2018-10-12T16:06:29.158Z,23.5
2018-10-12T16:16:28.447Z,23.4
2018-10-12T16:26:27.745Z,23.5
2018-10-12T16:36:27.057Z,23.4
2018-10-12T16:46:26.343Z,23.4
2018-10-12T16:56:25.644Z,23.4
2018-10-12T17:06:24.904Z,23.4
2018-10-12T17:16:24.135Z,23.4
2018-10-12T17:26:23.356Z,23.4
2018-10-12T17:36:22.588Z,23.4
2018-10-12T17:46:21.806Z,23.4
2018-10-12T17:56:21.038Z,23.4
2018-10-12T18:06:20.269Z,23.4
2018-10-12T18:16:19.484Z,23.4
2018-10-12T18:26:18.713Z,23.4
2018-10-12T18:36:17.992Z,23.4
2018-10-12T18:46:17.163Z,23.4
2018-10-12T18:56:16.387Z,23.4
2018-10-12T19:06:15.612Z,23.4
2018-10-12T19:16:14.832Z,23.4
2018-10-12T19:26:14.052Z,23.4
2018-10-12T19:36:13.278Z,23.4
2018-10-12T19:46:12.535Z,23.4
2018-10-12T19:56:11.730Z,23.4
2018-10-12T20:06:10.955Z,23.3
2018-10-12T20:16:10.187Z,23.3
2018-10-12T20:26:09.407Z,23.3
2018-10-12T20:36:08.630Z,23.3
2018-10-12T20:46:07.854Z,23.2
2018-10-12T20:56:07.077Z,23.2
2018-10-12T21:06:06.303Z,23.1
2018-10-12T21:16:05.524Z,23.1
2018-10-12T21:26:04.797Z,23.1
2018-10-12T21:36:03.970Z,23
2018-10-12T21:46:03.192Z,23
2018-10-12T21:56:02.414Z,23
2018-10-12T22:06:01.639Z,22.9
2018-10-12T22:16:00.864Z,22.9
2018-10-12T22:26:00.241Z,22.9
2018-10-12T22:35:59.307Z,22.9
2018-10-12T22:45:58.530Z,22.8
2018-10-12T22:55:57.755Z,22.8
2018-10-12T23:05:56.977Z,22.8
2018-10-12T23:15:56.245Z,22.8
2018-10-12T23:25:55.416Z,22.8
2018-10-12T23:35:54.639Z,22.8
2018-10-12T23:45:53.867Z,22.8
2018-10-12T23:55:53.124Z,22.8
